This is the latest recevied weather packets stored in our database for station/object K1RFS. If no packets are shown the sender has not sent any weather packets the latest 10 day(s).
| Time | Temp. | Humidity | Pressure | Rain* | Wind** | Luminosity | Snow |
|---|---|---|---|---|---|---|---|
| 1787705605 | 32.22° C | 22% | 1006.9 hPa | 0 mm | - | 87 W/m² | - |
| 1787705302 | 32.22° C | 22% | 1007 hPa | 0 mm | - | 84 W/m² | - |
| 1787705001 | 32.78° C | 20% | 1007 hPa | 0 mm | - | 115 W/m² | - |
| 1787704698 | 32.78° C | 21% | 1007 hPa | 0 mm | - | 149 W/m² | - |
| 1787704393 | 32.78° C | 21% | 1007.1 hPa | 0 mm | - | 129 W/m² | - |
| 1787704088 | 32.78° C | 22% | 1007 hPa | 0 mm | - | 131 W/m² | - |
| 1787703787 | 33.33° C | 22% | 1007 hPa | 0 mm | - | 130 W/m² | - |
| 1787703483 | 32.78° C | 22% | 1007 hPa | 0 mm | - | 153 W/m² | - |
| 1787703177 | 33.33° C | 21% | 1007 hPa | 0 mm | - | 126 W/m² | - |
| 1787702868 | 33.33° C | 21% | 1007.1 hPa | 0 mm | - | 187 W/m² | - |
| 1787702563 | 34.44° C | 21% | 1007.1 hPa | 0 mm | - | 206 W/m² | - |
| 1787702258 | 33.89° C | 21% | 1007.1 hPa | 0 mm | - | 209 W/m² | - |
| 1787701958 | 33.89° C | 20% | 1007.1 hPa | 0 mm | - | 236 W/m² | - |
| 1787701655 | 34.44° C | 23% | 1007.1 hPa | 0 mm | - | 246 W/m² | - |
| 1787701350 | 35° C | 21% | 1007 hPa | 0 mm | - | 257 W/m² | - |
| 1787701045 | 34.44° C | 19% | 1007.1 hPa | 0 mm | - | 268 W/m² | - |
| 1787700740 | 35° C | 21% | 1007.6 hPa | 0 mm | - | 278 W/m² | - |
| 1787700437 | 33.89° C | 20% | 1007.2 hPa | 0 mm | - | 297 W/m² | - |
| 1787700132 | 33.89° C | 21% | 1007.1 hPa | 0 mm | - | 309 W/m² | - |
| 1787699828 | 32.78° C | 22% | 1007.2 hPa | 0 mm | - | 338 W/m² | - |
| 1787699528 | 32.78° C | 22% | 1007.6 hPa | 0 mm | - | 393 W/m² | - |
| 1787699224 | 30.56° C | 31% | 1007.6 hPa | 0 mm | - | 385 W/m² | - |
| 1787698921 | 30° C | 30% | 1007.7 hPa | 0 mm | - | 109 W/m² | - |
| 1787698615 | 29.44° C | 31% | 1007.7 hPa | 0 mm | - | 72 W/m² | - |
| 1787698311 | 30° C | 29% | 1007.7 hPa | 0 mm | - | 61 W/m² | - |
* Rain latest hour (hover to see other rain measurements)
** Current wind speed in m/s (hover to see current wind gust speed)